Hlavní strana
METAR-TAF:

METAR-TAF

Letiště :

Tsushima, Japonsko

zeměpisná šířka: 34-17N, zeměpisná délka: 129-20E, výška: 63 m

Aktuální stav počasí

Zpráva byla vytvořena před 16 minutami, v 11:00 UTC
Západní vítr 21 kt s nárazy do 38 kt, proměnlivý mezi západojihozápadním a severoseverozápadním
Teplota 3°C
Vlhkost vzduchu 52%
Tlak 1015 hPa
Viditelnost 10 km a více
Skoro jasno ve výšce 3000 ft

METAR: RJDT 281100Z 28021G38KT 240V340 9999 FEW030 03/M06 Q1015

Čas: 20:16 (11:16 UTC)


TAF: chybějící

Stav a předpovědi počasí z více než 4 000 letišť (zprávy METAR a TAF).

Červené a žluté tečky na mapě představují dostupné meteorologické stanice.

Když kurzor umístíte na tečku, zobrazí se název stanice.

Pak kliknutím zobrazíte stav a předpověď počasí.

Chcete-li změnit mapu, kliknutím na zelené tlačítko se znaménkem +mapu přiblížíte, kliknutím na zelené tlačítko se znaménkem – mapu oddálíte a kliknutím na zelené šipky přejdete na sousední mapy.


METAR-TAF: